To NAV CANADA Home Page Login to a new session Search on AWWS site Disclaimer Vers la page française équivalente Tips FAQ What's new on the site To the Forecasts and Observations / NOTAM section To "File a Flight Plan" website Publications and other links Update of the User's profile FIC Telephone Numbers My Weather Data Folder Route Weather Data Regional Weather Data Local Weather Data To the Forecasts and Observations / NOTAM section
Request Generated 01/21/2018 at 20:10:30 UTC . Weather information available at that time is displayed.

METAR/TAF

WIARTON/ON    

METAR CYVV 212000Z 25004KT 6SM BR BKN050 OVC070 04/M00 A3002 RMK
SC7AC1 SLP176=
METAR CYVV 211900Z 18006KT 4SM BR BKN050 BKN070 05/00 A3001 RMK
SC5AC2 SLP174=
METAR CYVV 211800Z 21012KT 6SM BR SCT070 BKN250 05/M00 A3002 RMK
AC4CI2 SLP175=

TAF CYVV 211943Z 2120/2124 19008KT 6SM BR FEW015 BKN050 TEMPO
2120/2123 3SM BR BKN015
FM212300 06005KT 2SM -DZ BR OVC005 TEMPO 2123/2124 6SM BR SCT005
OVC050 PROB40 2123/2124 1/2SM -DZ FG VV002
RMK NXT FCST WILL BE ISSUED AT 221145Z=
Your time UTC time
Weather data provided by Environment Canada and NAV CANADA